Time;durP1;ratioP1;P1;durP2;ratioP2;P2;SDS_P1;SDS_P2;PMS_P1;PMS_P2;Temp;Humidity;BMP_temperature;BMP_pressure;BME280_temperature;BME280_humidity;BME280_pressure;Samples;Min_cycle;Max_cycle;Signal;HPM_P1;HPM_P2
2022/10/25 00:01:34;;;;;;;;;;;;;;;;;;4957455;29;20053;-86
2022/10/25 00:04:00;;;;;;;;;;;;;;;;;;4956731;29;19926;-82
2022/10/25 00:06:25;;;;;;;;;;;;;;;;;;4955393;29;19918;-82
2022/10/25 00:08:51;;;;;;;;;;;;;;;;;;4956528;29;19961;-81
2022/10/25 00:11:20;;;;;;;;;;;;;;;;;;4939239;29;19966;-81
2022/10/25 00:13:49;;;;;;;;;;;;;;;;;;4955124;29;20004;-81
2022/10/25 00:16:16;;;;;;;;;;;;;;;;;;4956434;29;19958;-87
2022/10/25 00:18:42;;;;;;;;;;;;;;;;;;4959409;29;19919;-89
2022/10/25 00:21:07;;;;;;;;;;;;;;;;;;4960242;29;19972;-87
2022/10/25 00:23:32;;;;;;;;;;;;;;;;;;4942311;29;19919;-88
2022/10/25 00:26:02;;;;;;;;;;;;;;;;;;4942048;29;19918;-86
2022/10/25 00:28:27;;;;;;;;;;;;;;;;;;4943262;29;19989;-86
2022/10/25 00:31:03;;;;;;;;;;;;;;;;;;4942668;29;20369;-86
2022/10/25 00:33:30;;;;;;;;;;;;;;;;;;4960571;29;19919;-86
2022/10/25 00:35:55;;;;;;;;;;;;;;;;;;4943242;29;20333;-90
2022/10/25 00:38:21;;;;;;;;;;;;;;;;;;4956565;29;19918;-90
2022/10/25 00:40:46;;;;;;;;;;;;;;;;;;4955985;29;19926;-83
2022/10/25 00:43:29;;;;;;;;;;;;;;;;;;4938804;29;19936;-85
2022/10/25 00:45:54;;;;;;;;;;;;;;;;;;4956124;29;19922;-89
2022/10/25 00:48:19;;;;;;;;;;;;;;;;;;4955746;28;19921;-88
2022/10/25 00:50:49;;;;;;;;;;;;;;;;;;4956064;29;19919;-86
2022/10/25 00:53:20;;;;;;;;;;;;;;;;;;4956883;29;20069;-88
2022/10/25 00:55:50;;;;;;;;;;;;;;;;;;4955875;29;19921;-88
2022/10/25 00:58:20;;;;;;;;;;;;;;;;;;4955842;29;19924;-88
2022/10/25 01:00:46;;;;;;;;;;;;;;;;;;4955845;29;20381;-87
2022/10/25 01:03:13;;;;;;;;;;;;;;;;;;4939595;29;19922;-81
2022/10/25 01:05:39;;;;;;;;;;;;;;;;;;4956420;29;19924;-86
2022/10/25 01:08:05;;;;;;;;;;;;;;;;;;4965139;29;19976;-82
2022/10/25 01:10:30;;;;;;;;;;;;;;;;;;4976652;29;19965;-86
2022/10/25 01:12:56;;;;;;;;;;;;;;;;;;4976661;29;20013;-83
2022/10/25 01:15:23;;;;;;;;;;;;;;;;;;4947140;29;20345;-88
2022/10/25 01:17:56;;;;;;;;;;;;;;;;;;4956366;29;19926;-88
2022/10/25 01:20:25;;;;;;;;;;;;;;;;;;4959322;29;19941;-89
2022/10/25 01:23:05;;;;;;;;;;;;;;;;;;4957696;29;19949;-88
2022/10/25 01:25:46;;;;;;;;;;;;;;;;;;4954454;29;19919;-89
2022/10/25 01:28:17;;;;;;;;;;;;;;;;;;4954222;29;19973;-90
2022/10/25 01:31:05;;;;;;;;;;;;;;;;;;4955768;29;19922;-88
2022/10/25 01:33:42;;;;;;;;;;;;;;;;;;4938566;29;20350;-88
2022/10/25 01:36:26;;;;;;;;;;;;;;;;;;4954591;29;19922;-86
2022/10/25 01:38:55;;;;;;;;;;;;;;;;;;4954227;29;19918;-87
2022/10/25 01:41:23;;;;;;;;;;;;;;;;;;4955449;29;19925;-85
2022/10/25 01:44:07;;;;;;;;;;;;;;;;;;4954369;29;19919;-87
2022/10/25 01:46:35;;;;;;;;;;;;;;;;;;4955476;29;20385;-85
2022/10/25 01:49:05;;;;;;;;;;;;;;;;;;4955486;29;19941;-85
2022/10/25 01:51:34;;;;;;;;;;;;;;;;;;4955282;29;19919;-87
2022/10/25 01:53:59;;;;;;;;;;;;;;;;;;4955433;29;19962;-89
2022/10/25 01:56:31;;;;;;;;;;;;;;;;;;4937992;29;19966;-87
2022/10/25 01:59:07;;;;;;;;;;;;;;;;;;4955497;28;20324;-85
2022/10/25 02:01:45;;;;;;;;;;;;;;;;;;4958702;29;19978;-87
2022/10/25 02:04:19;;;;;;;;;;;;;;;;;;4959198;29;20029;-86
2022/10/25 02:06:58;;;;;;;;;;;;;;;;;;4941356;29;19914;-89
2022/10/25 02:09:26;;;;;;;;;;;;;;;;;;4958675;29;20016;-86
2022/10/25 02:11:52;;;;;;;;;;;;;;;;;;4958840;29;19963;-89
2022/10/25 02:14:50;;;;;;;;;;;;;;;;;;4941469;29;19919;-86
2022/10/25 02:17:20;;;;;;;;;;;;;;;;;;4915786;29;20009;-86
2022/10/25 02:19:53;;;;;;;;;;;;;;;;;;4958387;29;19922;-82
2022/10/25 02:22:21;;;;;;;;;;;;;;;;;;4958414;29;20293;-82
2022/10/25 02:24:48;;;;;;;;;;;;;;;;;;4941169;29;19925;-82
2022/10/25 02:27:15;;;;;;;;;;;;;;;;;;4956981;29;20357;-82
2022/10/25 02:29:41;;;;;;;;;;;;;;;;;;4958207;29;19918;-82
2022/10/25 02:32:07;;;;;;;;;;;;;;;;;;4958148;29;19915;-81
2022/10/25 02:34:33;;;;;;;;;;;;;;;;;;4958179;29;19918;-82
2022/10/25 02:36:58;;;;;;;;;;;;;;;;;;4957072;29;19918;-82
2022/10/25 02:39:24;;;;;;;;;;;;;;;;;;4958418;29;19930;-82
2022/10/25 02:41:50;;;;;;;;;;;;;;;;;;4956929;29;19918;-83
2022/10/25 02:44:15;;;;;;;;;;;;;;;;;;4925115;29;19969;-88
2022/10/25 02:46:41;;;;;;;;;;;;;;;;;;4958199;29;19978;-84
2022/10/25 02:49:06;;;;;;;;;;;;;;;;;;4956623;29;19926;-85
2022/10/25 02:51:32;;;;;;;;;;;;;;;;;;4956538;29;19922;-88
2022/10/25 02:53:58;;;;;;;;;;;;;;;;;;4957837;29;20270;-86
2022/10/25 02:56:23;;;;;;;;;;;;;;;;;;4957645;29;20481;-83
2022/10/25 02:58:50;;;;;;;;;;;;;;;;;;4957714;29;19926;-88
2022/10/25 03:01:16;;;;;;;;;;;;;;;;;;4956423;29;20282;-86
2022/10/25 03:03:42;;;;;;;;;;;;;;;;;;4958047;29;19922;-86
2022/10/25 03:06:08;;;;;;;;;;;;;;;;;;4957737;29;20350;-87
2022/10/25 03:08:34;;;;;;;;;;;;;;;;;;4956229;29;19929;-90
2022/10/25 03:11:00;;;;;;;;;;;;;;;;;;4940356;29;20293;-88
2022/10/25 03:13:25;;;;;;;;;;;;;;;;;;4957529;29;19923;-87
2022/10/25 03:15:51;;;;;;;;;;;;;;;;;;4956899;29;20263;-87
2022/10/25 03:18:16;;;;;;;;;;;;;;;;;;4963705;28;19986;-83
2022/10/25 03:20:42;;;;;;;;;;;;;;;;;;4956772;29;20382;-88
2022/10/25 03:23:07;;;;;;;;;;;;;;;;;;4956757;29;19926;-85
2022/10/25 03:25:33;;;;;;;;;;;;;;;;;;4956673;29;19922;-90
2022/10/25 03:27:59;;;;;;;;;;;;;;;;;;4956675;29;19918;-88
2022/10/25 03:30:25;;;;;;;;;;;;;;;;;;4956687;29;19924;-90
2022/10/25 03:32:50;;;;;;;;;;;;;;;;;;4955435;29;20290;-89
2022/10/25 03:35:16;;;;;;;;;;;;;;;;;;4956481;29;19918;-89
2022/10/25 03:37:41;;;;;;;;;;;;;;;;;;4947302;29;19918;-86
2022/10/25 03:40:07;;;;;;;;;;;;;;;;;;4956970;29;19925;-90
2022/10/25 03:42:32;;;;;;;;;;;;;;;;;;4956881;29;19919;-86
2022/10/25 03:44:58;;;;;;;;;;;;;;;;;;4956883;29;19926;-86
2022/10/25 03:47:23;;;;;;;;;;;;;;;;;;4956815;29;19922;-89
2022/10/25 03:49:49;;;;;;;;;;;;;;;;;;4956775;29;19918;-89
2022/10/25 03:52:14;;;;;;;;;;;;;;;;;;4957018;29;20294;-88
2022/10/25 03:54:41;;;;;;;;;;;;;;;;;;4956726;29;19918;-88
2022/10/25 03:57:06;;;;;;;;;;;;;;;;;;4956582;29;19959;-88
2022/10/25 03:59:32;;;;;;;;;;;;;;;;;;4958840;29;19997;-87
2022/10/25 04:01:57;;;;;;;;;;;;;;;;;;4957856;29;19978;-89
2022/10/25 04:04:22;;;;;;;;;;;;;;;;;;4957717;29;20397;-87
2022/10/25 04:06:48;;;;;;;;;;;;;;;;;;4941124;29;20009;-88
2022/10/25 04:09:13;;;;;;;;;;;;;;;;;;4960263;29;20309;-86
2022/10/25 04:11:39;;;;;;;;;;;;;;;;;;4957899;29;19932;-89
2022/10/25 04:14:04;;;;;;;;;;;;;;;;;;4958213;29;19930;-88
2022/10/25 04:16:30;;;;;;;;;;;;;;;;;;4941084;29;19918;-88
2022/10/25 04:18:56;;;;;;;;;;;;;;;;;;4939185;29;20009;-87
2022/10/25 04:21:22;;;;;;;;;;;;;;;;;;4956392;28;19922;-85
2022/10/25 04:23:51;;;;;;;;;;;;;;;;;;4938917;29;19978;-86
2022/10/25 04:26:17;;;;;;;;;;;;;;;;;;4957396;29;19923;-87
2022/10/25 04:28:43;;;;;;;;;;;;;;;;;;4939131;29;19918;-87
2022/10/25 04:31:09;;;;;;;;;;;;;;;;;;4956449;29;20336;-87
2022/10/25 04:33:35;;;;;;;;;;;;;;;;;;4956294;29;20013;-89
2022/10/25 04:36:00;;;;;;;;;;;;;;;;;;4955932;29;19925;-86
2022/10/25 04:38:26;;;;;;;;;;;;;;;;;;4956062;29;19919;-87
2022/10/25 04:40:52;;;;;;;;;;;;;;;;;;4956206;29;19919;-89
2022/10/25 04:43:18;;;;;;;;;;;;;;;;;;4938867;29;19921;-88
2022/10/25 04:45:43;;;;;;;;;;;;;;;;;;4956101;29;20017;-87
2022/10/25 04:48:09;;;;;;;;;;;;;;;;;;4956302;29;19921;-88
2022/10/25 04:50:36;;;;;;;;;;;;;;;;;;4956137;29;19922;-88
2022/10/25 04:53:02;;;;;;;;;;;;;;;;;;4958171;29;19925;-88
2022/10/25 04:55:27;;;;;;;;;;;;;;;;;;4940858;29;19958;-89
2022/10/25 04:57:52;;;;;;;;;;;;;;;;;;4955978;29;20337;-88
2022/10/25 05:00:18;;;;;;;;;;;;;;;;;;4955975;29;19919;-89
2022/10/25 05:02:43;;;;;;;;;;;;;;;;;;4955810;29;19988;-89
2022/10/25 05:05:09;;;;;;;;;;;;;;;;;;4955984;29;20361;-87
2022/10/25 05:07:34;;;;;;;;;;;;;;;;;;4955825;29;19914;-89
2022/10/25 05:10:00;;;;;;;;;;;;;;;;;;4955765;29;19918;-88
2022/10/25 05:12:25;;;;;;;;;;;;;;;;;;4955829;29;19941;-91
2022/10/25 05:14:50;;;;;;;;;;;;;;;;;;4962964;29;19914;-86
2022/10/25 05:17:16;;;;;;;;;;;;;;;;;;4967729;29;19942;-82
2022/10/25 05:19:41;;;;;;;;;;;;;;;;;;4960343;29;19926;-85
2022/10/25 05:22:07;;;;;;;;;;;;;;;;;;4970358;29;19902;-82
2022/10/25 05:24:32;;;;;;;;;;;;;;;;;;4966976;29;19923;-88
2022/10/25 05:26:58;;;;;;;;;;;;;;;;;;4961466;29;20370;-90
2022/10/25 05:29:23;;;;;;;;;;;;;;;;;;4956609;29;19926;-88
2022/10/25 05:31:49;;;;;;;;;;;;;;;;;;4956083;29;19974;-89
2022/10/25 05:34:14;;;;;;;;;;;;;;;;;;4956576;28;20010;-89
2022/10/25 05:36:40;;;;;;;;;;;;;;;;;;4958106;29;19944;-86
2022/10/25 05:39:05;;;;;;;;;;;;;;;;;;4959454;29;20017;-88
2022/10/25 05:41:31;;;;;;;;;;;;;;;;;;4959227;29;20285;-86
2022/10/25 05:43:56;;;;;;;;;;;;;;;;;;4959351;29;19918;-87
2022/10/25 05:46:22;;;;;;;;;;;;;;;;;;4959147;29;19918;-86
2022/10/25 05:48:48;;;;;;;;;;;;;;;;;;4941970;29;19926;-88
2022/10/25 05:51:21;;;;;;;;;;;;;;;;;;4959223;29;20626;-89
2022/10/25 05:53:48;;;;;;;;;;;;;;;;;;4959430;29;19995;-89
2022/10/25 05:56:13;;;;;;;;;;;;;;;;;;4959298;29;19925;-91
2022/10/25 05:58:39;;;;;;;;;;;;;;;;;;4958890;29;19918;-87
2022/10/25 06:01:05;;;;;;;;;;;;;;;;;;4957551;29;19925;-86
2022/10/25 06:03:30;;;;;;;;;;;;;;;;;;4959136;29;19922;-86
2022/10/25 06:05:59;;;;;;;;;;;;;;;;;;4959088;29;20009;-87
2022/10/25 06:08:25;;;;;;;;;;;;;;;;;;4959002;29;19919;-90
2022/10/25 06:10:50;;;;;;;;;;;;;;;;;;4958861;29;19924;-88
2022/10/25 06:13:16;;;;;;;;;;;;;;;;;;4941561;29;20011;-89
2022/10/25 06:15:41;;;;;;;;;;;;;;;;;;4958769;29;19919;-89
2022/10/25 06:18:07;;;;;;;;;;;;;;;;;;4958473;29;19918;-88
2022/10/25 06:20:32;;;;;;;;;;;;;;;;;;4958617;29;19962;-87
2022/10/25 06:22:57;;;;;;;;;;;;;;;;;;4958733;29;20392;-89
2022/10/25 06:25:23;;;;;;;;;;;;;;;;;;4958773;29;19990;-89
2022/10/25 06:27:48;;;;;;;;;;;;;;;;;;4958856;29;20417;-87
2022/10/25 06:30:14;;;;;;;;;;;;;;;;;;4941198;29;20025;-87
2022/10/25 06:32:39;;;;;;;;;;;;;;;;;;4958421;29;20341;-89
2022/10/25 06:35:05;;;;;;;;;;;;;;;;;;4958531;29;19919;-88
2022/10/25 06:37:30;;;;;;;;;;;;;;;;;;4958086;29;20017;-89
2022/10/25 06:39:56;;;;;;;;;;;;;;;;;;4958185;29;19961;-88
2022/10/25 06:42:21;;;;;;;;;;;;;;;;;;4958236;29;19984;-85
2022/10/25 06:44:46;;;;;;;;;;;;;;;;;;4957657;28;20334;-88
2022/10/25 06:47:12;;;;;;;;;;;;;;;;;;4958083;29;19962;-87
2022/10/25 06:49:37;;;;;;;;;;;;;;;;;;4958269;29;20392;-88
2022/10/25 06:52:03;;;;;;;;;;;;;;;;;;4958253;29;19950;-88
2022/10/25 06:54:28;;;;;;;;;;;;;;;;;;4958005;29;19925;-82
2022/10/25 06:56:54;;;;;;;;;;;;;;;;;;4957820;29;20343;-87
2022/10/25 06:59:19;;;;;;;;;;;;;;;;;;4957920;29;20342;-88
2022/10/25 07:01:45;;;;;;;;;;;;;;;;;;4957532;29;19922;-87
2022/10/25 07:04:10;;;;;;;;;;;;;;;;;;4958181;29;19926;-86
2022/10/25 07:06:36;;;;;;;;;;;;;;;;;;4956339;29;19918;-89
2022/10/25 07:09:02;;;;;;;;;;;;;;;;;;4957737;29;19922;-87
2022/10/25 07:11:29;;;;;;;;;;;;;;;;;;4957654;29;19918;-88
2022/10/25 07:13:57;;;;;;;;;;;;;;;;;;4957998;29;19936;-86
2022/10/25 07:16:23;;;;;;;;;;;;;;;;;;4957657;29;19918;-88
2022/10/25 07:18:48;;;;;;;;;;;;;;;;;;4957461;29;19941;-87
2022/10/25 07:21:15;;;;;;;;;;;;;;;;;;4957459;29;19930;-85
2022/10/25 07:23:41;;;;;;;;;;;;;;;;;;4957497;29;19973;-86
2022/10/25 07:26:08;;;;;;;;;;;;;;;;;;4957440;29;19923;-87
2022/10/25 07:28:33;;;;;;;;;;;;;;;;;;4957381;29;19918;-84
2022/10/25 07:30:59;;;;;;;;;;;;;;;;;;4957274;29;19919;-83
2022/10/25 07:33:24;;;;;;;;;;;;;;;;;;4957236;29;19929;-85
2022/10/25 07:35:50;;;;;;;;;;;;;;;;;;4957173;29;19926;-85
2022/10/25 07:38:15;;;;;;;;;;;;;;;;;;4957171;29;19919;-84
2022/10/25 07:40:41;;;;;;;;;;;;;;;;;;4957116;29;19918;-84
2022/10/25 07:43:07;;;;;;;;;;;;;;;;;;4957147;29;19953;-87
2022/10/25 07:45:32;;;;;;;;;;;;;;;;;;4956970;29;20005;-85
2022/10/25 07:47:57;;;;;;;;;;;;;;;;;;4956918;29;19919;-84
2022/10/25 07:50:23;;;;;;;;;;;;;;;;;;4956976;29;19915;-84
2022/10/25 07:52:48;;;;;;;;;;;;;;;;;;4957004;29;19980;-85
2022/10/25 07:55:14;;;;;;;;;;;;;;;;;;4956999;29;20417;-84
2022/10/25 07:57:39;;;;;;;;;;;;;;;;;;4955961;28;19966;-84
2022/10/25 08:00:06;;;;;;;;;;;;;;;;;;4939887;29;19979;-85
2022/10/25 08:02:31;;;;;;;;;;;;;;;;;;4956414;29;20382;-85
2022/10/25 08:04:57;;;;;;;;;;;;;;;;;;4957047;29;19946;-84
2022/10/25 08:07:22;;;;;;;;;;;;;;;;;;4956682;29;19918;-85
2022/10/25 08:09:48;;;;;;;;;;;;;;;;;;4939438;29;19977;-86
2022/10/25 08:12:13;;;;;;;;;;;;;;;;;;4957042;29;19926;-86
2022/10/25 08:14:38;;;;;;;;;;;;;;;;;;4956589;29;19961;-83
2022/10/25 08:17:04;;;;;;;;;;;;;;;;;;4956689;29;19926;-83
2022/10/25 08:19:29;;;;;;;;;;;;;;;;;;4956842;29;20318;-83
2022/10/25 08:21:55;;;;;;;;;;;;;;;;;;4956578;29;20412;-84
2022/10/25 08:24:20;;;;;;;;;;;;;;;;;;4956427;29;20377;-84
2022/10/25 08:26:45;;;;;;;;;;;;;;;;;;4956510;29;19919;-84
2022/10/25 08:29:11;;;;;;;;;;;;;;;;;;4956529;29;19919;-86
2022/10/25 08:31:36;;;;;;;;;;;;;;;;;;4956323;29;19919;-84
2022/10/25 08:34:02;;;;;;;;;;;;;;;;;;4956474;29;19919;-84
2022/10/25 08:36:27;;;;;;;;;;;;;;;;;;4956162;29;19919;-86
2022/10/25 08:38:53;;;;;;;;;;;;;;;;;;4956406;29;19925;-85
2022/10/25 08:41:18;;;;;;;;;;;;;;;;;;4956217;29;19918;-85
2022/10/25 08:43:52;;;;;;;;;;;;;;;;;;4956186;29;20009;-85
2022/10/25 08:46:20;;;;;;;;;;;;;;;;;;4956403;29;19941;-88
2022/10/25 08:48:49;;;;;;;;;;;;;;;;;;4956038;29;19925;-87
2022/10/25 08:51:18;;;;;;;;;;;;;;;;;;4938929;29;20289;-88
2022/10/25 08:53:49;;;;;;;;;;;;;;;;;;4956012;29;19918;-86
2022/10/25 08:56:15;;;;;;;;;;;;;;;;;;4956049;29;19929;-88
2022/10/25 08:58:53;;;;;;;;;;;;;;;;;;4956093;29;20013;-86
2022/10/25 09:01:21;;;;;;;;;;;;;;;;;;4955849;29;19934;-88
2022/10/25 09:03:46;;;;;;;;;;;;;;;;;;4954814;29;19926;-86
2022/10/25 09:06:20;;;;;;;;;;;;;;;;;;4956038;29;19922;-87
2022/10/25 09:08:48;;;;;;;;;;;;;;;;;;4957517;28;19922;-88
2022/10/25 09:11:29;;;;;;;;;;;;;;;;;;4959884;29;20401;-88
2022/10/25 09:14:21;;;;;;;;;;;;;;;;;;4959883;29;19941;-86
2022/10/25 09:16:50;;;;;;;;;;;;;;;;;;4959716;29;19942;-88
2022/10/25 09:19:36;;;;;;;;;;;;;;;;;;4959960;29;19918;-86
2022/10/25 09:22:03;;;;;;;;;;;;;;;;;;4946325;29;19925;-88
2022/10/25 09:24:28;;;;;;;;;;;;;;;;;;4959747;29;20005;-88
2022/10/25 09:27:01;;;;;;;;;;;;;;;;;;4959484;29;19985;-87
2022/10/25 09:29:29;;;;;;;;;;;;;;;;;;4959628;29;20017;-87
2022/10/25 09:31:56;;;;;;;;;;;;;;;;;;4959455;29;19926;-86
2022/10/25 09:34:22;;;;;;;;;;;;;;;;;;4958130;29;20021;-88
2022/10/25 09:36:51;;;;;;;;;;;;;;;;;;4959401;29;19919;-88
2022/10/25 09:39:37;;;;;;;;;;;;;;;;;;4959296;29;20029;-88
2022/10/25 09:42:06;;;;;;;;;;;;;;;;;;4959483;29;19925;-88
2022/10/25 09:44:39;;;;;;;;;;;;;;;;;;4962489;29;19919;-86
2022/10/25 09:47:04;;;;;;;;;;;;;;;;;;4974812;29;19962;-86
2022/10/25 09:49:42;;;;;;;;;;;;;;;;;;4978105;29;19919;-85
2022/10/25 09:52:30;;;;;;;;;;;;;;;;;;4958488;29;20358;-88
2022/10/25 09:55:11;;;;;;;;;;;;;;;;;;4961294;29;19918;-88
2022/10/25 09:57:36;;;;;;;;;;;;;;;;;;4959155;29;20399;-88
2022/10/25 10:00:03;;;;;;;;;;;;;;;;;;4959198;29;19919;-88
2022/10/25 10:02:28;;;;;;;;;;;;;;;;;;4958807;29;19987;-88
2022/10/25 10:04:54;;;;;;;;;;;;;;;;;;4959026;29;19926;-87
2022/10/25 10:07:36;;;;;;;;;;;;;;;;;;4958907;29;19925;-88
2022/10/25 10:10:06;;;;;;;;;;;;;;;;;;4958881;29;19941;-87
2022/10/25 10:12:31;;;;;;;;;;;;;;;;;;4959106;29;19966;-88
2022/10/25 10:15:03;;;;;;;;;;;;;;;;;;4941649;29;20391;-87
2022/10/25 10:17:29;;;;;;;;;;;;;;;;;;4958629;29;19919;-88
2022/10/25 10:20:15;;;;;;;;;;;;;;;;;;4940536;29;19922;-87
2022/10/25 10:22:48;;;;;;;;;;;;;;;;;;4958782;29;19926;-89
2022/10/25 10:25:15;;;;;;;;;;;;;;;;;;4958776;29;19919;-88
2022/10/25 10:27:40;;;;;;;;;;;;;;;;;;4958758;29;19922;-88
2022/10/25 10:30:06;;;;;;;;;;;;;;;;;;4958718;29;19966;-89
2022/10/25 10:32:33;;;;;;;;;;;;;;;;;;4958666;29;19925;-88
2022/10/25 10:35:00;;;;;;;;;;;;;;;;;;4958656;29;19965;-87
2022/10/25 10:37:29;;;;;;;;;;;;;;;;;;4958224;29;19925;-88
2022/10/25 10:39:56;;;;;;;;;;;;;;;;;;4958599;29;19923;-87
2022/10/25 10:42:22;;;;;;;;;;;;;;;;;;4958688;29;20005;-88
2022/10/25 10:44:59;;;;;;;;;;;;;;;;;;4958540;29;20001;-89
2022/10/25 10:47:26;;;;;;;;;;;;;;;;;;4958063;29;20417;-89
2022/10/25 10:49:51;;;;;;;;;;;;;;;;;;4958202;29;19926;-87
2022/10/25 10:52:43;;;;;;;;;;;;;;;;;;4941015;29;19915;-87
2022/10/25 10:55:16;;;;;;;;;;;;;;;;;;4954933;29;19919;-88
2022/10/25 10:57:43;;;;;;;;;;;;;;;;;;4957817;29;19926;-84
2022/10/25 11:00:19;;;;;;;;;;;;;;;;;;4958351;29;20297;-88
2022/10/25 11:02:44;;;;;;;;;;;;;;;;;;4957703;29;20393;-87
2022/10/25 11:05:21;;;;;;;;;;;;;;;;;;4940580;29;19922;-87
2022/10/25 11:07:59;;;;;;;;;;;;;;;;;;4940457;29;19915;-85
2022/10/25 11:10:26;;;;;;;;;;;;;;;;;;4957791;29;19962;-87
2022/10/25 11:13:05;;;;;;;;;;;;;;;;;;4957605;29;19922;-86
2022/10/25 11:15:33;;;;;;;;;;;;;;;;;;4957682;29;19919;-86
2022/10/25 11:18:00;;;;;;;;;;;;;;;;;;4957406;29;19942;-85
2022/10/25 11:20:28;;;;;;;;;;;;;;;;;;4940194;29;20308;-87
2022/10/25 11:23:18;;;;;;;;;;;;;;;;;;4957539;29;19961;-86
2022/10/25 11:25:51;;;;;;;;;;;;;;;;;;4957595;29;19927;-86
2022/10/25 11:28:31;;;;;;;;;;;;;;;;;;4957521;29;19944;-87
2022/10/25 11:31:12;;;;;;;;;;;;;;;;;;4957417;28;19957;-88
2022/10/25 11:33:52;;;;;;;;;;;;;;;;;;4957361;29;19919;-87
2022/10/25 11:36:26;;;;;;;;;;;;;;;;;;4957276;29;19922;-87
2022/10/25 11:38:51;;;;;;;;;;;;;;;;;;4957218;29;19965;-88
2022/10/25 11:41:35;;;;;;;;;;;;;;;;;;4939988;29;20476;-86
2022/10/25 11:44:07;;;;;;;;;;;;;;;;;;4939866;29;19919;-87
2022/10/25 11:46:38;;;;;;;;;;;;;;;;;;4956977;29;20009;-87
2022/10/25 11:49:16;;;;;;;;;;;;;;;;;;4956999;29;19997;-86
2022/10/25 11:52:00;;;;;;;;;;;;;;;;;;4956926;29;20013;-87
2022/10/25 11:54:49;;;;;;;;;;;;;;;;;;4957003;29;20502;-84
2022/10/25 11:57:17;;;;;;;;;;;;;;;;;;4957117;29;20280;-88
2022/10/25 11:59:51;;;;;;;;;;;;;;;;;;4939274;29;21289;-85
2022/10/25 12:02:23;;;;;;;;;;;;;;;;;;4956522;29;19954;-89
2022/10/25 12:04:53;;;;;;;;;;;;;;;;;;4957253;29;19929;-87
2022/10/25 12:07:29;;;;;;;;;;;;;;;;;;4957077;29;20365;-86
2022/10/25 12:10:14;;;;;;;;;;;;;;;;;;4956623;29;20380;-86
2022/10/25 12:12:52;;;;;;;;;;;;;;;;;;4939624;29;19918;-85
2022/10/25 12:15:38;;;;;;;;;;;;;;;;;;4939362;29;19958;-86
2022/10/25 12:18:05;;;;;;;;;;;;;;;;;;4956641;29;20009;-87
2022/10/25 12:20:31;;;;;;;;;;;;;;;;;;4939111;29;19926;-87
2022/10/25 12:22:57;;;;;;;;;;;;;;;;;;4956525;29;20434;-87
2022/10/25 12:25:25;;;;;;;;;;;;;;;;;;4956392;29;20010;-87
2022/10/25 12:28:15;;;;;;;;;;;;;;;;;;4956535;29;19914;-87
2022/10/25 12:30:41;;;;;;;;;;;;;;;;;;4956295;29;19973;-85
2022/10/25 12:33:07;;;;;;;;;;;;;;;;;;4938949;29;19977;-86
2022/10/25 12:35:38;;;;;;;;;;;;;;;;;;4956151;29;20389;-84
2022/10/25 12:38:07;;;;;;;;;;;;;;;;;;4956847;29;20340;-84
2022/10/25 12:40:36;;;;;;;;;;;;;;;;;;4956670;29;20013;-88
2022/10/25 12:43:12;;;;;;;;;;;;;;;;;;4955879;28;19969;-86
2022/10/25 12:45:40;;;;;;;;;;;;;;;;;;4954914;29;19919;-87
2022/10/25 12:48:24;;;;;;;;;;;;;;;;;;4955153;29;20277;-83
2022/10/25 12:51:10;;;;;;;;;;;;;;;;;;4957987;29;19925;-87
2022/10/25 12:53:54;;;;;;;;;;;;;;;;;;4917049;29;20002;-83
2022/10/25 12:56:38;;;;;;;;;;;;;;;;;;4926649;29;19927;-87
2022/10/25 12:59:03;;;;;;;;;;;;;;;;;;4918527;29;19923;-87
2022/10/25 13:01:32;;;;;;;;;;;;;;;;;;4915658;29;20351;-86
2022/10/25 13:04:15;;;;;;;;;;;;;;;;;;4918507;29;19919;-87
2022/10/25 13:06:45;;;;;;;;;;;;;;;;;;4920986;29;20062;-86
2022/10/25 13:09:12;;;;;;;;;;;;;;;;;;4920241;29;19919;-86
2022/10/25 13:11:40;;;;;;;;;;;;;;;;;;4904064;29;19915;-86
2022/10/25 13:14:18;;;;;;;;;;;;;;;;;;4906854;29;20025;-86
2022/10/25 13:16:43;;;;;;;;;;;;;;;;;;4919966;29;19958;-87
2022/10/25 13:19:23;;;;;;;;;;;;;;;;;;4915726;29;20502;-87
2022/10/25 13:21:51;;;;;;;;;;;;;;;;;;4915852;29;20375;-85
2022/10/25 13:24:37;;;;;;;;;;;;;;;;;;4921128;29;19919;-88
2022/10/25 13:27:11;;;;;;;;;;;;;;;;;;4921662;29;19954;-86
2022/10/25 13:29:55;;;;;;;;;;;;;;;;;;4923653;29;19926;-87
2022/10/25 13:32:21;;;;;;;;;;;;;;;;;;4947625;29;19919;-85
2022/10/25 13:34:46;;;;;;;;;;;;;;;;;;4948647;29;19926;-84
2022/10/25 13:37:32;;;;;;;;;;;;;;;;;;4951140;29;19930;-85
2022/10/25 13:40:05;;;;;;;;;;;;;;;;;;4951132;29;19919;-87
2022/10/25 13:42:32;;;;;;;;;;;;;;;;;;4940012;29;19923;-87
2022/10/25 13:45:03;;;;;;;;;;;;;;;;;;4943261;29;19919;-87
2022/10/25 13:47:38;;;;;;;;;;;;;;;;;;4941183;29;19922;-86
2022/10/25 13:50:25;;;;;;;;;;;;;;;;;;4941764;29;19958;-88
2022/10/25 13:52:59;;;;;;;;;;;;;;;;;;4939748;29;19919;-87
2022/10/25 13:55:26;;;;;;;;;;;;;;;;;;4941573;29;19923;-85
2022/10/25 13:57:55;;;;;;;;;;;;;;;;;;4943817;29;19926;-85
2022/10/25 14:00:27;;;;;;;;;;;;;;;;;;4944056;29;19925;-85
2022/10/25 14:03:12;;;;;;;;;;;;;;;;;;4958995;29;20028;-87
2022/10/25 14:06:02;;;;;;;;;;;;;;;;;;4933173;29;19926;-87
2022/10/25 14:08:30;;;;;;;;;;;;;;;;;;4963750;29;19919;-86
2022/10/25 14:11:07;;;;;;;;;;;;;;;;;;4961535;29;19981;-87
2022/10/25 14:13:38;;;;;;;;;;;;;;;;;;4929632;29;20396;-88
2022/10/25 14:16:04;;;;;;;;;;;;;;;;;;4963408;29;19925;-86
2022/10/25 14:18:32;;;;;;;;;;;;;;;;;;4945772;29;19998;-87
2022/10/25 14:21:00;;;;;;;;;;;;;;;;;;4961661;29;19918;-86
2022/10/25 14:23:29;;;;;;;;;;;;;;;;;;4959716;29;20009;-85
2022/10/25 14:25:56;;;;;;;;;;;;;;;;;;4941295;29;19918;-86
2022/10/25 14:28:21;;;;;;;;;;;;;;;;;;4958431;29;19974;-87
2022/10/25 14:30:48;;;;;;;;;;;;;;;;;;4958329;29;20373;-87
2022/10/25 14:33:25;;;;;;;;;;;;;;;;;;4958377;29;20370;-86
2022/10/25 14:36:11;;;;;;;;;;;;;;;;;;4941062;29;19922;-85
2022/10/25 14:38:48;;;;;;;;;;;;;;;;;;4950113;29;19919;-87
2022/10/25 14:41:18;;;;;;;;;;;;;;;;;;4942510;29;19922;-87
2022/10/25 14:43:45;;;;;;;;;;;;;;;;;;4956929;29;20422;-86
2022/10/25 14:46:12;;;;;;;;;;;;;;;;;;4956234;29;19930;-84
2022/10/25 14:48:38;;;;;;;;;;;;;;;;;;4953826;29;19994;-85
2022/10/25 14:51:05;;;;;;;;;;;;;;;;;;4956174;29;20378;-86
2022/10/25 14:53:31;;;;;;;;;;;;;;;;;;4950891;29;19922;-86
2022/10/25 14:56:01;;;;;;;;;;;;;;;;;;4944718;29;19919;-89
2022/10/25 14:58:29;;;;;;;;;;;;;;;;;;4938691;29;19995;-87
2022/10/25 15:04:58;;;;;;;;;;;;;;;;;;5114467;27;19924;-87
2022/10/25 15:07:30;;;;;;;;;;;;;;;;;;5117553;28;20357;-87
2022/10/25 15:09:57;;;;;;;;;;;;;;;;;;5110646;28;20003;-86
2022/10/25 15:12:26;;;;;;;;;;;;;;;;;;5108298;28;19916;-88
2022/10/25 15:14:55;;;;;;;;;;;;;;;;;;5102285;28;19923;-86
2022/10/25 15:17:20;;;;;;;;;;;;;;;;;;5110030;28;19965;-86
2022/10/25 15:19:55;;;;;;;;;;;;;;;;;;5114542;28;19924;-85
2022/10/25 15:22:26;;;;;;;;;;;;;;;;;;5111537;28;19916;-85
2022/10/25 15:24:51;;;;;;;;;;;;;;;;;;5111267;28;20274;-86
2022/10/25 15:27:24;;;;;;;;;;;;;;;;;;5094342;28;19917;-89
2022/10/25 15:29:50;;;;;;;;;;;;;;;;;;5089209;28;19920;-87
2022/10/25 15:32:26;;;;;;;;;;;;;;;;;;5093156;28;19943;-86
2022/10/25 15:34:57;;;;;;;;;;;;;;;;;;5093992;28;19963;-84
2022/10/25 15:37:23;;;;;;;;;;;;;;;;;;5101735;28;19920;-84
2022/10/25 15:39:50;;;;;;;;;;;;;;;;;;5122101;28;19915;-88
2022/10/25 15:42:16;;;;;;;;;;;;;;;;;;5128887;28;19927;-84
2022/10/25 15:44:41;;;;;;;;;;;;;;;;;;5105462;28;19931;-87
2022/10/25 15:47:20;;;;;;;;;;;;;;;;;;5109618;28;19924;-89
2022/10/25 15:49:49;;;;;;;;;;;;;;;;;;5112470;28;20010;-88
2022/10/25 15:52:15;;;;;;;;;;;;;;;;;;5113032;28;19923;-87
2022/10/25 15:54:42;;;;;;;;;;;;;;;;;;5111240;28;19920;-88
2022/10/25 15:57:07;;;;;;;;;;;;;;;;;;5110465;28;20005;-89
2022/10/25 15:59:33;;;;;;;;;;;;;;;;;;5109737;28;19925;-87
2022/10/25 16:01:58;;;;;;;;;;;;;;;;;;5110858;28;19920;-87
2022/10/25 16:04:24;;;;;;;;;;;;;;;;;;5110476;28;19924;-88
2022/10/25 16:06:49;;;;;;;;;;;;;;;;;;5111491;28;19958;-86
2022/10/25 16:09:17;;;;;;;;;;;;;;;;;;5122622;28;19966;-87
2022/10/25 16:11:53;;;;;;;;;;;;;;;;;;5125651;28;20002;-87
2022/10/25 16:14:20;;;;;;;;;;;;;;;;;;5095039;28;19921;-88
2022/10/25 16:16:45;;;;;;;;;;;;;;;;;;5084622;28;19927;-87
2022/10/25 16:19:15;;;;;;;;;;;;;;;;;;5081737;28;20279;-87
2022/10/25 16:21:41;;;;;;;;;;;;;;;;;;5081478;28;19927;-83
2022/10/25 16:24:06;;;;;;;;;;;;;;;;;;5081525;28;19928;-86
2022/10/25 16:26:33;;;;;;;;;;;;;;;;;;5082081;28;19920;-84
2022/10/25 16:28:59;;;;;;;;;;;;;;;;;;5082365;28;19921;-87
2022/10/25 16:31:24;;;;;;;;;;;;;;;;;;5082204;28;20393;-83
2022/10/25 16:33:50;;;;;;;;;;;;;;;;;;5087622;28;19924;-84
2022/10/25 16:36:15;;;;;;;;;;;;;;;;;;5082826;28;19939;-82
2022/10/25 16:38:41;;;;;;;;;;;;;;;;;;5081392;28;19931;-88
2022/10/25 16:41:20;;;;;;;;;;;;;;;;;;5080686;28;19926;-85
2022/10/25 16:43:45;;;;;;;;;;;;;;;;;;5081867;28;19931;-87
2022/10/25 16:46:10;;;;;;;;;;;;;;;;;;5082336;28;19928;-86
2022/10/25 16:48:37;;;;;;;;;;;;;;;;;;5083562;28;20350;-85
2022/10/25 16:51:03;;;;;;;;;;;;;;;;;;5086434;28;20302;-83
2022/10/25 16:53:28;;;;;;;;;;;;;;;;;;5091174;28;19924;-85
2022/10/25 16:55:55;;;;;;;;;;;;;;;;;;5087421;28;19924;-87
2022/10/25 16:58:20;;;;;;;;;;;;;;;;;;5088946;28;19936;-88
2022/10/25 17:00:48;;;;;;;;;;;;;;;;;;5085708;28;20034;-85
2022/10/25 17:03:14;;;;;;;;;;;;;;;;;;5088615;28;19930;-83